Arthurdale, West Virginia
Current Conditions -  °F | °C
As of 12:53 PM on Sunday 25 Jan 2015 (Local Time) from KMGW Reporting Station
Haze Haze  
Wind Chill: 37°   Ceiling: 1300
Heat Index: 37°   Visibility: 5mi
Dew Point: 31°   Wind: 0mph
Humidity: 79%   Direction: NA
Pressure: 29.79"   Gusts: NA
Location:  39.49°N, 79.82°W
Report Text: KMGW 251753Z 00000KT 5SM HZ BKN013 OVC035 03/M01 A2979 RMK AO2 SLP096 T00281006 10028 20006 58003
Loading
Personal Weather Stations






























Interactive Weather Map New forecast layout! Learn more

10-Day Weather Forecast

Advertisements
Track Severe Weather on mobile